sensor_id;sensor_type;location;lat;lon;timestamp;P1;durP1;ratioP1;P2;durP2;ratioP2
55069;SDS011;40967;52.070;8.596;2023-02-24T00:01:13;2.88;;;1.00;;
55069;SDS011;40967;52.070;8.596;2023-02-24T00:03:49;3.83;;;1.33;;
55069;SDS011;40967;52.070;8.596;2023-02-24T00:06:25;3.47;;;1.02;;
55069;SDS011;40967;52.070;8.596;2023-02-24T00:09:00;2.55;;;1.00;;
55069;SDS011;40967;52.070;8.596;2023-02-24T00:11:26;3.38;;;1.05;;
55069;SDS011;40967;52.070;8.596;2023-02-24T00:13:52;3.42;;;1.15;;
55069;SDS011;40967;52.070;8.596;2023-02-24T00:16:17;3.40;;;1.20;;
55069;SDS011;40967;52.070;8.596;2023-02-24T00:18:43;4.38;;;1.30;;
55069;SDS011;40967;52.070;8.596;2023-02-24T00:21:10;2.50;;;1.00;;
55069;SDS011;40967;52.070;8.596;2023-02-24T00:23:43;3.35;;;1.00;;
55069;SDS011;40967;52.070;8.596;2023-02-24T00:26:10;3.67;;;1.10;;
55069;SDS011;40967;52.070;8.596;2023-02-24T00:28:37;3.30;;;0.90;;
55069;SDS011;40967;52.070;8.596;2023-02-24T00:31:07;2.35;;;0.90;;
55069;SDS011;40967;52.070;8.596;2023-02-24T00:33:35;3.58;;;0.90;;
55069;SDS011;40967;52.070;8.596;2023-02-24T00:36:07;3.72;;;0.93;;
55069;SDS011;40967;52.070;8.596;2023-02-24T00:38:41;2.63;;;0.90;;
55069;SDS011;40967;52.070;8.596;2023-02-24T00:41:15;3.00;;;1.10;;
55069;SDS011;40967;52.070;8.596;2023-02-24T00:43:43;2.15;;;0.73;;
55069;SDS011;40967;52.070;8.596;2023-02-24T00:48:48;2.40;;;0.70;;
55069;SDS011;40967;52.070;8.596;2023-02-24T00:51:19;3.17;;;1.10;;
55069;SDS011;40967;52.070;8.596;2023-02-24T00:53:47;4.80;;;1.00;;
55069;SDS011;40967;52.070;8.596;2023-02-24T00:56:20;2.40;;;0.80;;
55069;SDS011;40967;52.070;8.596;2023-02-24T00:58:46;3.28;;;1.00;;
55069;SDS011;40967;52.070;8.596;2023-02-24T01:01:16;5.55;;;1.10;;
55069;SDS011;40967;52.070;8.596;2023-02-24T01:03:43;4.68;;;1.00;;
55069;SDS011;40967;52.070;8.596;2023-02-24T01:06:12;4.47;;;0.95;;
55069;SDS011;40967;52.070;8.596;2023-02-24T01:08:38;2.80;;;1.02;;
55069;SDS011;40967;52.070;8.596;2023-02-24T01:11:07;3.88;;;1.23;;
55069;SDS011;40967;52.070;8.596;2023-02-24T01:13:51;4.33;;;1.17;;
55069;SDS011;40967;52.070;8.596;2023-02-24T01:16:16;3.45;;;1.15;;
55069;SDS011;40967;52.070;8.596;2023-02-24T01:18:45;3.38;;;1.02;;
55069;SDS011;40967;52.070;8.596;2023-02-24T01:21:12;4.18;;;1.30;;
55069;SDS011;40967;52.070;8.596;2023-02-24T01:23:42;5.00;;;1.27;;
55069;SDS011;40967;52.070;8.596;2023-02-24T01:26:10;4.03;;;0.90;;
55069;SDS011;40967;52.070;8.596;2023-02-24T01:28:36;5.80;;;1.38;;
55069;SDS011;40967;52.070;8.596;2023-02-24T01:31:02;2.73;;;0.90;;
55069;SDS011;40967;52.070;8.596;2023-02-24T01:33:30;5.07;;;1.30;;
55069;SDS011;40967;52.070;8.596;2023-02-24T01:36:10;3.38;;;1.08;;
55069;SDS011;40967;52.070;8.596;2023-02-24T01:38:41;6.05;;;1.33;;
55069;SDS011;40967;52.070;8.596;2023-02-24T01:41:11;5.25;;;1.40;;
55069;SDS011;40967;52.070;8.596;2023-02-24T01:46:38;5.47;;;1.48;;
55069;SDS011;40967;52.070;8.596;2023-02-24T01:51:41;5.67;;;1.33;;
55069;SDS011;40967;52.070;8.596;2023-02-24T01:54:14;4.72;;;1.38;;
55069;SDS011;40967;52.070;8.596;2023-02-24T01:56:41;3.03;;;1.10;;
55069;SDS011;40967;52.070;8.596;2023-02-24T01:59:07;5.57;;;1.40;;
55069;SDS011;40967;52.070;8.596;2023-02-24T02:01:35;4.78;;;1.20;;
55069;SDS011;40967;52.070;8.596;2023-02-24T02:04:12;4.40;;;1.13;;
55069;SDS011;40967;52.070;8.596;2023-02-24T02:06:42;7.68;;;1.38;;
55069;SDS011;40967;52.070;8.596;2023-02-24T02:09:09;3.87;;;1.10;;
55069;SDS011;40967;52.070;8.596;2023-02-24T02:11:35;4.00;;;1.08;;
55069;SDS011;40967;52.070;8.596;2023-02-24T02:14:01;3.03;;;0.80;;
55069;SDS011;40967;52.070;8.596;2023-02-24T02:16:31;4.43;;;1.00;;
55069;SDS011;40967;52.070;8.596;2023-02-24T02:36:28;5.60;;;1.17;;
55069;SDS011;40967;52.070;8.596;2023-02-24T02:46:40;4.85;;;1.02;;
55069;SDS011;40967;52.070;8.596;2023-02-24T02:49:14;6.15;;;1.50;;
55069;SDS011;40967;52.070;8.596;2023-02-24T02:51:50;4.85;;;1.20;;
55069;SDS011;40967;52.070;8.596;2023-02-24T02:57:13;6.70;;;1.25;;
55069;SDS011;40967;52.070;8.596;2023-02-24T02:59:55;7.60;;;1.80;;
55069;SDS011;40967;52.070;8.596;2023-02-24T03:02:29;5.80;;;1.50;;
55069;SDS011;40967;52.070;8.596;2023-02-24T03:05:02;13.07;;;2.40;;
55069;SDS011;40967;52.070;8.596;2023-02-24T03:07:33;8.60;;;1.80;;
55069;SDS011;40967;52.070;8.596;2023-02-24T03:10:05;14.13;;;2.65;;
55069;SDS011;40967;52.070;8.596;2023-02-24T03:12:35;11.50;;;2.17;;
55069;SDS011;40967;52.070;8.596;2023-02-24T03:15:05;8.00;;;1.93;;
55069;SDS011;40967;52.070;8.596;2023-02-24T03:17:36;5.17;;;1.50;;
55069;SDS011;40967;52.070;8.596;2023-02-24T03:20:26;7.75;;;1.55;;
55069;SDS011;40967;52.070;8.596;2023-02-24T03:23:12;5.97;;;1.50;;
55069;SDS011;40967;52.070;8.596;2023-02-24T03:25:45;6.25;;;1.27;;
55069;SDS011;40967;52.070;8.596;2023-02-24T03:28:25;5.95;;;1.63;;
55069;SDS011;40967;52.070;8.596;2023-02-24T03:30:59;6.22;;;1.23;;
55069;SDS011;40967;52.070;8.596;2023-02-24T03:33:38;5.22;;;1.10;;
55069;SDS011;40967;52.070;8.596;2023-02-24T03:36:08;3.13;;;0.82;;
55069;SDS011;40967;52.070;8.596;2023-02-24T03:38:38;4.40;;;1.08;;
55069;SDS011;40967;52.070;8.596;2023-02-24T03:41:06;5.90;;;1.23;;
55069;SDS011;40967;52.070;8.596;2023-02-24T03:43:37;3.92;;;1.10;;
55069;SDS011;40967;52.070;8.596;2023-02-24T03:46:06;7.65;;;1.60;;
55069;SDS011;40967;52.070;8.596;2023-02-24T03:48:33;4.32;;;1.00;;
55069;SDS011;40967;52.070;8.596;2023-02-24T03:51:02;5.78;;;1.10;;
55069;SDS011;40967;52.070;8.596;2023-02-24T03:53:40;5.07;;;1.60;;
55069;SDS011;40967;52.070;8.596;2023-02-24T04:01:56;3.63;;;1.03;;
55069;SDS011;40967;52.070;8.596;2023-02-24T04:04:38;7.22;;;1.25;;
55069;SDS011;40967;52.070;8.596;2023-02-24T04:15:31;4.65;;;1.10;;
55069;SDS011;40967;52.070;8.596;2023-02-24T04:18:14;4.30;;;1.27;;
55069;SDS011;40967;52.070;8.596;2023-02-24T04:20:44;3.83;;;1.27;;
55069;SDS011;40967;52.070;8.596;2023-02-24T04:23:17;5.93;;;1.60;;
55069;SDS011;40967;52.070;8.596;2023-02-24T04:25:47;5.30;;;1.30;;
55069;SDS011;40967;52.070;8.596;2023-02-24T04:28:15;2.65;;;1.00;;
55069;SDS011;40967;52.070;8.596;2023-02-24T04:30:46;6.57;;;1.45;;
55069;SDS011;40967;52.070;8.596;2023-02-24T04:33:18;4.97;;;1.15;;
55069;SDS011;40967;52.070;8.596;2023-02-24T04:35:44;6.07;;;1.63;;
55069;SDS011;40967;52.070;8.596;2023-02-24T04:38:12;6.90;;;1.40;;
55069;SDS011;40967;52.070;8.596;2023-02-24T04:40:38;5.20;;;1.20;;
55069;SDS011;40967;52.070;8.596;2023-02-24T04:43:05;3.17;;;1.20;;
55069;SDS011;40967;52.070;8.596;2023-02-24T04:45:32;5.20;;;1.20;;
55069;SDS011;40967;52.070;8.596;2023-02-24T04:47:59;3.63;;;1.25;;
55069;SDS011;40967;52.070;8.596;2023-02-24T04:50:36;2.20;;;0.77;;
55069;SDS011;40967;52.070;8.596;2023-02-24T04:55:36;2.92;;;0.95;;
55069;SDS011;40967;52.070;8.596;2023-02-24T04:58:14;2.80;;;1.00;;
55069;SDS011;40967;52.070;8.596;2023-02-24T05:00:48;3.42;;;1.08;;
55069;SDS011;40967;52.070;8.596;2023-02-24T05:03:20;3.73;;;1.33;;
55069;SDS011;40967;52.070;8.596;2023-02-24T05:05:50;2.72;;;1.08;;
55069;SDS011;40967;52.070;8.596;2023-02-24T05:08:20;2.93;;;1.10;;
55069;SDS011;40967;52.070;8.596;2023-02-24T05:10:46;3.42;;;1.27;;
55069;SDS011;40967;52.070;8.596;2023-02-24T05:13:16;3.65;;;1.25;;
55069;SDS011;40967;52.070;8.596;2023-02-24T05:15:43;2.05;;;0.82;;
55069;SDS011;40967;52.070;8.596;2023-02-24T05:18:10;3.25;;;1.10;;
55069;SDS011;40967;52.070;8.596;2023-02-24T05:20:52;2.77;;;0.90;;
55069;SDS011;40967;52.070;8.596;2023-02-24T05:23:41;3.20;;;0.80;;
55069;SDS011;40967;52.070;8.596;2023-02-24T05:26:09;2.88;;;1.00;;
55069;SDS011;40967;52.070;8.596;2023-02-24T05:28:40;3.22;;;0.93;;
55069;SDS011;40967;52.070;8.596;2023-02-24T05:31:10;3.70;;;0.98;;
55069;SDS011;40967;52.070;8.596;2023-02-24T05:33:39;3.40;;;0.90;;
55069;SDS011;40967;52.070;8.596;2023-02-24T05:36:07;3.15;;;0.90;;
55069;SDS011;40967;52.070;8.596;2023-02-24T05:38:45;2.40;;;0.80;;
55069;SDS011;40967;52.070;8.596;2023-02-24T05:41:16;4.13;;;1.08;;
55069;SDS011;40967;52.070;8.596;2023-02-24T05:43:46;2.70;;;0.90;;
55069;SDS011;40967;52.070;8.596;2023-02-24T05:46:17;3.65;;;1.10;;
55069;SDS011;40967;52.070;8.596;2023-02-24T05:48:44;3.42;;;1.20;;
55069;SDS011;40967;52.070;8.596;2023-02-24T05:51:15;3.30;;;1.02;;
55069;SDS011;40967;52.070;8.596;2023-02-24T05:53:44;3.85;;;1.20;;
55069;SDS011;40967;52.070;8.596;2023-02-24T05:56:09;4.82;;;1.52;;
55069;SDS011;40967;52.070;8.596;2023-02-24T05:58:38;5.38;;;1.38;;
55069;SDS011;40967;52.070;8.596;2023-02-24T06:01:11;3.77;;;1.10;;
55069;SDS011;40967;52.070;8.596;2023-02-24T06:03:41;4.82;;;1.05;;
55069;SDS011;40967;52.070;8.596;2023-02-24T06:06:11;3.55;;;1.10;;
55069;SDS011;40967;52.070;8.596;2023-02-24T06:08:37;6.93;;;1.23;;
55069;SDS011;40967;52.070;8.596;2023-02-24T06:11:14;4.20;;;1.10;;
55069;SDS011;40967;52.070;8.596;2023-02-24T06:13:43;5.00;;;1.30;;
55069;SDS011;40967;52.070;8.596;2023-02-24T06:16:12;4.10;;;1.00;;
55069;SDS011;40967;52.070;8.596;2023-02-24T06:18:39;3.60;;;0.90;;
55069;SDS011;40967;52.070;8.596;2023-02-24T06:21:06;1.83;;;0.70;;
55069;SDS011;40967;52.070;8.596;2023-02-24T06:23:31;2.30;;;0.60;;
55069;SDS011;40967;52.070;8.596;2023-02-24T06:26:01;2.97;;;1.00;;
55069;SDS011;40967;52.070;8.596;2023-02-24T06:28:29;3.35;;;0.80;;
55069;SDS011;40967;52.070;8.596;2023-02-24T06:30:57;3.47;;;0.80;;
55069;SDS011;40967;52.070;8.596;2023-02-24T06:33:27;3.90;;;0.90;;
55069;SDS011;40967;52.070;8.596;2023-02-24T06:35:52;6.37;;;1.20;;
55069;SDS011;40967;52.070;8.596;2023-02-24T06:38:17;3.53;;;0.93;;
55069;SDS011;40967;52.070;8.596;2023-02-24T06:40:43;3.43;;;1.23;;
55069;SDS011;40967;52.070;8.596;2023-02-24T06:43:08;2.47;;;0.70;;
55069;SDS011;40967;52.070;8.596;2023-02-24T06:45:34;2.05;;;0.70;;
55069;SDS011;40967;52.070;8.596;2023-02-24T06:48:00;12.73;;;1.80;;
55069;SDS011;40967;52.070;8.596;2023-02-24T06:50:27;5.45;;;1.27;;
55069;SDS011;40967;52.070;8.596;2023-02-24T06:52:56;4.00;;;1.15;;
55069;SDS011;40967;52.070;8.596;2023-02-24T06:55:25;2.80;;;1.00;;
55069;SDS011;40967;52.070;8.596;2023-02-24T06:57:52;4.65;;;1.50;;
55069;SDS011;40967;52.070;8.596;2023-02-24T07:00:29;3.97;;;1.30;;
55069;SDS011;40967;52.070;8.596;2023-02-24T07:03:07;3.70;;;1.02;;
55069;SDS011;40967;52.070;8.596;2023-02-24T07:08:14;5.68;;;1.42;;
55069;SDS011;40967;52.070;8.596;2023-02-24T07:10:50;7.00;;;1.80;;
55069;SDS011;40967;52.070;8.596;2023-02-24T07:13:16;4.45;;;1.10;;
55069;SDS011;40967;52.070;8.596;2023-02-24T07:15:42;3.30;;;1.30;;
55069;SDS011;40967;52.070;8.596;2023-02-24T07:18:13;2.45;;;0.90;;
55069;SDS011;40967;52.070;8.596;2023-02-24T07:20:39;4.10;;;0.90;;
55069;SDS011;40967;52.070;8.596;2023-02-24T07:23:07;4.50;;;1.13;;
55069;SDS011;40967;52.070;8.596;2023-02-24T07:25:33;8.03;;;1.40;;
55069;SDS011;40967;52.070;8.596;2023-02-24T07:27:59;7.53;;;1.33;;
55069;SDS011;40967;52.070;8.596;2023-02-24T07:30:26;6.90;;;1.50;;
55069;SDS011;40967;52.070;8.596;2023-02-24T07:32:54;3.90;;;1.13;;
55069;SDS011;40967;52.070;8.596;2023-02-24T07:35:22;3.87;;;1.03;;
55069;SDS011;40967;52.070;8.596;2023-02-24T07:37:48;6.07;;;1.43;;
55069;SDS011;40967;52.070;8.596;2023-02-24T07:40:17;4.40;;;1.23;;
55069;SDS011;40967;52.070;8.596;2023-02-24T07:42:46;4.13;;;1.17;;
55069;SDS011;40967;52.070;8.596;2023-02-24T07:45:12;5.32;;;1.10;;
55069;SDS011;40967;52.070;8.596;2023-02-24T07:47:38;5.80;;;1.53;;
55069;SDS011;40967;52.070;8.596;2023-02-24T07:50:05;5.05;;;1.38;;
55069;SDS011;40967;52.070;8.596;2023-02-24T07:52:37;6.70;;;1.53;;
55069;SDS011;40967;52.070;8.596;2023-02-24T07:55:03;5.03;;;1.17;;
55069;SDS011;40967;52.070;8.596;2023-02-24T07:57:28;5.72;;;1.45;;
55069;SDS011;40967;52.070;8.596;2023-02-24T07:59:57;6.70;;;1.60;;
55069;SDS011;40967;52.070;8.596;2023-02-24T08:02:24;10.00;;;1.50;;
55069;SDS011;40967;52.070;8.596;2023-02-24T08:04:52;5.88;;;1.38;;
55069;SDS011;40967;52.070;8.596;2023-02-24T08:07:18;5.90;;;1.20;;
55069;SDS011;40967;52.070;8.596;2023-02-24T08:09:48;4.47;;;1.15;;
55069;SDS011;40967;52.070;8.596;2023-02-24T08:12:33;8.07;;;1.50;;
55069;SDS011;40967;52.070;8.596;2023-02-24T08:14:59;10.32;;;1.60;;
55069;SDS011;40967;52.070;8.596;2023-02-24T08:17:32;6.40;;;1.42;;
55069;SDS011;40967;52.070;8.596;2023-02-24T08:19:59;8.85;;;1.88;;
55069;SDS011;40967;52.070;8.596;2023-02-24T08:22:45;5.80;;;1.38;;
55069;SDS011;40967;52.070;8.596;2023-02-24T08:25:11;6.95;;;1.40;;
55069;SDS011;40967;52.070;8.596;2023-02-24T08:28:03;5.43;;;1.20;;
55069;SDS011;40967;52.070;8.596;2023-02-24T08:30:30;6.43;;;1.50;;
55069;SDS011;40967;52.070;8.596;2023-02-24T08:33:02;6.00;;;1.40;;
55069;SDS011;40967;52.070;8.596;2023-02-24T08:35:30;6.28;;;1.23;;
55069;SDS011;40967;52.070;8.596;2023-02-24T08:38:10;5.15;;;1.40;;
55069;SDS011;40967;52.070;8.596;2023-02-24T08:40:39;4.57;;;1.30;;
55069;SDS011;40967;52.070;8.596;2023-02-24T08:43:15;4.10;;;1.10;;
55069;SDS011;40967;52.070;8.596;2023-02-24T08:45:56;6.07;;;1.48;;
55069;SDS011;40967;52.070;8.596;2023-02-24T08:48:25;4.90;;;1.02;;
55069;SDS011;40967;52.070;8.596;2023-02-24T08:51:01;10.43;;;1.50;;
55069;SDS011;40967;52.070;8.596;2023-02-24T08:53:51;6.82;;;1.52;;
55069;SDS011;40967;52.070;8.596;2023-02-24T08:56:18;10.30;;;1.95;;
55069;SDS011;40967;52.070;8.596;2023-02-24T08:58:49;5.20;;;1.33;;
55069;SDS011;40967;52.070;8.596;2023-02-24T09:01:21;8.48;;;2.05;;
55069;SDS011;40967;52.070;8.596;2023-02-24T09:03:58;8.57;;;1.80;;
55069;SDS011;40967;52.070;8.596;2023-02-24T09:06:34;10.60;;;2.17;;
55069;SDS011;40967;52.070;8.596;2023-02-24T09:09:09;8.40;;;1.80;;
55069;SDS011;40967;52.070;8.596;2023-02-24T09:14:19;9.07;;;2.10;;
55069;SDS011;40967;52.070;8.596;2023-02-24T09:16:47;12.32;;;1.98;;
55069;SDS011;40967;52.070;8.596;2023-02-24T09:19:48;8.27;;;1.70;;
55069;SDS011;40967;52.070;8.596;2023-02-24T09:22:23;12.52;;;2.03;;
55069;SDS011;40967;52.070;8.596;2023-02-24T09:25:11;9.73;;;2.20;;
55069;SDS011;40967;52.070;8.596;2023-02-24T09:30:35;8.68;;;1.98;;
55069;SDS011;40967;52.070;8.596;2023-02-24T09:38:51;7.97;;;1.73;;
55069;SDS011;40967;52.070;8.596;2023-02-24T09:49:43;10.07;;;2.47;;
55069;SDS011;40967;52.070;8.596;2023-02-24T09:52:14;11.85;;;1.98;;
55069;SDS011;40967;52.070;8.596;2023-02-24T09:54:42;11.07;;;2.67;;
55069;SDS011;40967;52.070;8.596;2023-02-24T09:57:37;7.82;;;2.10;;
55069;SDS011;40967;52.070;8.596;2023-02-24T10:01:00;7.82;;;2.15;;
55069;SDS011;40967;52.070;8.596;2023-02-24T10:03:54;7.10;;;1.92;;
55069;SDS011;40967;52.070;8.596;2023-02-24T10:06:39;6.57;;;1.57;;
55069;SDS011;40967;52.070;8.596;2023-02-24T10:09:25;7.25;;;1.83;;
55069;SDS011;40967;52.070;8.596;2023-02-24T10:12:05;7.82;;;1.92;;
55069;SDS011;40967;52.070;8.596;2023-02-24T10:17:45;7.68;;;1.88;;
55069;SDS011;40967;52.070;8.596;2023-02-24T10:20:25;7.65;;;2.20;;
55069;SDS011;40967;52.070;8.596;2023-02-24T10:23:15;7.53;;;1.95;;
55069;SDS011;40967;52.070;8.596;2023-02-24T10:26:22;7.03;;;2.30;;
55069;SDS011;40967;52.070;8.596;2023-02-24T10:31:47;5.35;;;1.65;;
55069;SDS011;40967;52.070;8.596;2023-02-24T10:34:21;10.35;;;1.95;;
55069;SDS011;40967;52.070;8.596;2023-02-24T10:36:59;6.80;;;2.30;;
55069;SDS011;40967;52.070;8.596;2023-02-24T10:39:30;6.82;;;2.10;;
55069;SDS011;40967;52.070;8.596;2023-02-24T10:41:58;7.57;;;2.20;;
55069;SDS011;40967;52.070;8.596;2023-02-24T10:44:48;6.88;;;1.88;;
55069;SDS011;40967;52.070;8.596;2023-02-24T10:47:24;5.43;;;2.00;;
55069;SDS011;40967;52.070;8.596;2023-02-24T10:49:57;4.85;;;1.60;;
55069;SDS011;40967;52.070;8.596;2023-02-24T10:55:13;5.33;;;2.10;;
55069;SDS011;40967;52.070;8.596;2023-02-24T10:57:53;5.97;;;2.63;;
55069;SDS011;40967;52.070;8.596;2023-02-24T11:00:36;8.18;;;3.42;;
55069;SDS011;40967;52.070;8.596;2023-02-24T11:03:25;7.40;;;3.40;;
55069;SDS011;40967;52.070;8.596;2023-02-24T11:06:19;7.28;;;3.28;;
55069;SDS011;40967;52.070;8.596;2023-02-24T11:09:13;6.03;;;2.90;;
55069;SDS011;40967;52.070;8.596;2023-02-24T11:11:52;6.80;;;3.20;;
55069;SDS011;40967;52.070;8.596;2023-02-24T11:14:49;9.20;;;3.83;;
55069;SDS011;40967;52.070;8.596;2023-02-24T11:17:56;8.25;;;3.60;;
55069;SDS011;40967;52.070;8.596;2023-02-24T11:20:32;6.57;;;2.85;;
55069;SDS011;40967;52.070;8.596;2023-02-24T11:23:00;8.10;;;3.75;;
55069;SDS011;40967;52.070;8.596;2023-02-24T11:25:39;7.47;;;3.50;;
55069;SDS011;40967;52.070;8.596;2023-02-24T11:39:32;11.02;;;4.55;;
55069;SDS011;40967;52.070;8.596;2023-02-24T11:42:23;7.70;;;4.07;;
55069;SDS011;40967;52.070;8.596;2023-02-24T11:48:11;8.50;;;3.90;;
55069;SDS011;40967;52.070;8.596;2023-02-24T11:50:52;6.60;;;3.37;;
55069;SDS011;40967;52.070;8.596;2023-02-24T12:01:39;8.02;;;3.65;;
55069;SDS011;40967;52.070;8.596;2023-02-24T12:06:58;8.35;;;3.13;;
55069;SDS011;40967;52.070;8.596;2023-02-24T12:09:43;6.20;;;3.10;;
55069;SDS011;40967;52.070;8.596;2023-02-24T12:12:17;7.13;;;3.25;;
55069;SDS011;40967;52.070;8.596;2023-02-24T12:14:55;7.57;;;3.10;;
55069;SDS011;40967;52.070;8.596;2023-02-24T12:17:36;4.43;;;2.85;;
55069;SDS011;40967;52.070;8.596;2023-02-24T12:20:22;5.47;;;2.60;;
55069;SDS011;40967;52.070;8.596;2023-02-24T12:22:57;5.20;;;2.72;;
55069;SDS011;40967;52.070;8.596;2023-02-24T12:25:38;5.90;;;2.65;;
55069;SDS011;40967;52.070;8.596;2023-02-24T12:31:05;8.43;;;4.22;;
55069;SDS011;40967;52.070;8.596;2023-02-24T12:42:39;4.72;;;2.95;;
55069;SDS011;40967;52.070;8.596;2023-02-24T12:48:46;7.07;;;3.30;;
55069;SDS011;40967;52.070;8.596;2023-02-24T12:54:19;6.43;;;3.70;;
55069;SDS011;40967;52.070;8.596;2023-02-24T12:59:36;7.82;;;4.20;;
55069;SDS011;40967;52.070;8.596;2023-02-24T13:15:30;5.03;;;3.55;;
55069;SDS011;40967;52.070;8.596;2023-02-24T13:17:56;5.90;;;3.47;;
55069;SDS011;40967;52.070;8.596;2023-02-24T13:20:26;6.28;;;4.35;;
55069;SDS011;40967;52.070;8.596;2023-02-24T13:22:52;7.47;;;4.75;;
55069;SDS011;40967;52.070;8.596;2023-02-24T13:25:52;8.30;;;4.90;;
55069;SDS011;40967;52.070;8.596;2023-02-24T13:30:56;6.10;;;4.40;;
55069;SDS011;40967;52.070;8.596;2023-02-24T13:33:30;5.88;;;3.65;;
55069;SDS011;40967;52.070;8.596;2023-02-24T13:38:35;6.35;;;4.30;;
55069;SDS011;40967;52.070;8.596;2023-02-24T13:43:51;5.93;;;4.03;;
55069;SDS011;40967;52.070;8.596;2023-02-24T13:46:28;7.15;;;4.50;;
55069;SDS011;40967;52.070;8.596;2023-02-24T13:52:00;6.80;;;4.60;;
55069;SDS011;40967;52.070;8.596;2023-02-24T13:54:31;8.82;;;5.07;;
55069;SDS011;40967;52.070;8.596;2023-02-24T14:02:35;9.88;;;6.03;;
55069;SDS011;40967;52.070;8.596;2023-02-24T14:05:25;12.57;;;7.00;;
55069;SDS011;40967;52.070;8.596;2023-02-24T14:07:54;10.48;;;6.80;;
55069;SDS011;40967;52.070;8.596;2023-02-24T14:10:25;9.30;;;5.93;;
55069;SDS011;40967;52.070;8.596;2023-02-24T14:12:58;11.52;;;6.57;;
55069;SDS011;40967;52.070;8.596;2023-02-24T14:15:28;13.18;;;6.70;;
55069;SDS011;40967;52.070;8.596;2023-02-24T14:17:58;9.57;;;5.80;;
55069;SDS011;40967;52.070;8.596;2023-02-24T14:20:32;10.80;;;5.90;;
55069;SDS011;40967;52.070;8.596;2023-02-24T14:23:01;10.68;;;5.95;;
55069;SDS011;40967;52.070;8.596;2023-02-24T14:25:44;8.52;;;4.70;;
55069;SDS011;40967;52.070;8.596;2023-02-24T14:28:17;12.17;;;5.67;;
55069;SDS011;40967;52.070;8.596;2023-02-24T14:30:57;10.45;;;5.10;;
55069;SDS011;40967;52.070;8.596;2023-02-24T14:33:33;11.00;;;5.05;;
55069;SDS011;40967;52.070;8.596;2023-02-24T14:36:04;9.13;;;4.22;;
55069;SDS011;40967;52.070;8.596;2023-02-24T14:38:38;10.63;;;4.60;;
55069;SDS011;40967;52.070;8.596;2023-02-24T14:41:06;7.38;;;3.75;;
55069;SDS011;40967;52.070;8.596;2023-02-24T14:43:41;7.20;;;3.90;;
55069;SDS011;40967;52.070;8.596;2023-02-24T14:46:07;7.55;;;3.97;;
55069;SDS011;40967;52.070;8.596;2023-02-24T14:48:33;10.18;;;4.85;;
55069;SDS011;40967;52.070;8.596;2023-02-24T14:51:06;9.33;;;3.93;;
55069;SDS011;40967;52.070;8.596;2023-02-24T14:53:41;8.77;;;4.57;;
55069;SDS011;40967;52.070;8.596;2023-02-24T14:56:20;9.40;;;4.68;;
55069;SDS011;40967;52.070;8.596;2023-02-24T14:58:53;9.45;;;4.40;;
55069;SDS011;40967;52.070;8.596;2023-02-24T15:01:28;8.30;;;4.60;;
55069;SDS011;40967;52.070;8.596;2023-02-24T15:04:09;10.82;;;4.60;;
55069;SDS011;40967;52.070;8.596;2023-02-24T15:06:47;8.00;;;4.10;;
55069;SDS011;40967;52.070;8.596;2023-02-24T15:09:22;9.38;;;4.55;;
55069;SDS011;40967;52.070;8.596;2023-02-24T15:11:51;8.75;;;4.57;;
55069;SDS011;40967;52.070;8.596;2023-02-24T15:16:51;8.43;;;3.90;;
55069;SDS011;40967;52.070;8.596;2023-02-24T15:19:25;9.68;;;4.88;;
55069;SDS011;40967;52.070;8.596;2023-02-24T15:22:24;9.10;;;4.93;;
55069;SDS011;40967;52.070;8.596;2023-02-24T15:24:50;7.00;;;4.78;;
55069;SDS011;40967;52.070;8.596;2023-02-24T15:27:22;12.47;;;5.33;;
55069;SDS011;40967;52.070;8.596;2023-02-24T15:32:26;12.80;;;6.22;;
55069;SDS011;40967;52.070;8.596;2023-02-24T15:34:54;11.65;;;5.47;;
55069;SDS011;40967;52.070;8.596;2023-02-24T15:37:23;13.48;;;6.60;;
55069;SDS011;40967;52.070;8.596;2023-02-24T15:39:56;11.15;;;5.22;;
55069;SDS011;40967;52.070;8.596;2023-02-24T15:42:30;10.43;;;5.30;;
55069;SDS011;40967;52.070;8.596;2023-02-24T15:45:04;13.15;;;6.30;;
55069;SDS011;40967;52.070;8.596;2023-02-24T15:47:50;13.73;;;6.78;;
55069;SDS011;40967;52.070;8.596;2023-02-24T15:50:23;12.23;;;6.03;;
55069;SDS011;40967;52.070;8.596;2023-02-24T15:53:00;6.90;;;4.47;;
55069;SDS011;40967;52.070;8.596;2023-02-24T15:55:28;9.82;;;5.57;;
55069;SDS011;40967;52.070;8.596;2023-02-24T15:57:55;11.37;;;5.60;;
55069;SDS011;40967;52.070;8.596;2023-02-24T16:00:23;11.50;;;5.70;;
55069;SDS011;40967;52.070;8.596;2023-02-24T16:02:49;10.10;;;5.65;;
55069;SDS011;40967;52.070;8.596;2023-02-24T16:05:15;9.80;;;5.65;;
55069;SDS011;40967;52.070;8.596;2023-02-24T16:07:41;9.17;;;4.67;;
55069;SDS011;40967;52.070;8.596;2023-02-24T16:10:16;7.10;;;4.18;;
55069;SDS011;40967;52.070;8.596;2023-02-24T16:12:45;10.88;;;6.18;;
55069;SDS011;40967;52.070;8.596;2023-02-24T16:15:16;8.75;;;5.70;;
55069;SDS011;40967;52.070;8.596;2023-02-24T16:17:44;11.93;;;6.30;;
55069;SDS011;40967;52.070;8.596;2023-02-24T16:20:15;9.95;;;5.25;;
55069;SDS011;40967;52.070;8.596;2023-02-24T16:22:51;8.53;;;4.90;;
55069;SDS011;40967;52.070;8.596;2023-02-24T16:25:18;11.25;;;4.93;;
55069;SDS011;40967;52.070;8.596;2023-02-24T16:27:43;10.77;;;5.65;;
55069;SDS011;40967;52.070;8.596;2023-02-24T16:30:13;9.93;;;6.10;;
55069;SDS011;40967;52.070;8.596;2023-02-24T16:32:41;8.38;;;5.07;;
55069;SDS011;40967;52.070;8.596;2023-02-24T16:35:10;7.95;;;4.80;;
55069;SDS011;40967;52.070;8.596;2023-02-24T16:37:37;9.77;;;5.40;;
55069;SDS011;40967;52.070;8.596;2023-02-24T16:40:03;7.85;;;4.45;;
55069;SDS011;40967;52.070;8.596;2023-02-24T16:42:40;8.27;;;4.72;;
55069;SDS011;40967;52.070;8.596;2023-02-24T16:45:06;8.73;;;4.17;;
55069;SDS011;40967;52.070;8.596;2023-02-24T16:47:31;6.82;;;3.70;;
55069;SDS011;40967;52.070;8.596;2023-02-24T16:49:58;6.95;;;3.92;;
55069;SDS011;40967;52.070;8.596;2023-02-24T16:52:24;11.13;;;4.83;;
55069;SDS011;40967;52.070;8.596;2023-02-24T16:54:49;9.38;;;4.82;;
55069;SDS011;40967;52.070;8.596;2023-02-24T16:57:15;12.43;;;5.40;;
55069;SDS011;40967;52.070;8.596;2023-02-24T16:59:40;11.43;;;5.43;;
55069;SDS011;40967;52.070;8.596;2023-02-24T17:02:09;10.25;;;5.00;;
55069;SDS011;40967;52.070;8.596;2023-02-24T17:04:42;9.15;;;4.57;;
55069;SDS011;40967;52.070;8.596;2023-02-24T17:07:09;10.73;;;5.63;;
55069;SDS011;40967;52.070;8.596;2023-02-24T17:09:34;8.43;;;4.50;;
55069;SDS011;40967;52.070;8.596;2023-02-24T17:11:59;9.95;;;4.85;;
55069;SDS011;40967;52.070;8.596;2023-02-24T17:14:25;7.60;;;4.20;;
55069;SDS011;40967;52.070;8.596;2023-02-24T17:16:51;12.33;;;6.20;;
55069;SDS011;40967;52.070;8.596;2023-02-24T17:19:16;9.33;;;4.77;;
55069;SDS011;40967;52.070;8.596;2023-02-24T17:21:42;9.93;;;4.78;;
55069;SDS011;40967;52.070;8.596;2023-02-24T17:24:12;8.87;;;4.37;;
55069;SDS011;40967;52.070;8.596;2023-02-24T17:26:40;7.50;;;4.28;;
55069;SDS011;40967;52.070;8.596;2023-02-24T17:29:05;9.73;;;4.83;;
55069;SDS011;40967;52.070;8.596;2023-02-24T17:34:31;10.70;;;5.78;;
55069;SDS011;40967;52.070;8.596;2023-02-24T17:36:59;11.20;;;5.70;;
55069;SDS011;40967;52.070;8.596;2023-02-24T17:39:25;12.37;;;6.77;;
55069;SDS011;40967;52.070;8.596;2023-02-24T17:41:50;12.07;;;6.80;;
55069;SDS011;40967;52.070;8.596;2023-02-24T17:44:16;12.40;;;7.27;;
55069;SDS011;40967;52.070;8.596;2023-02-24T17:46:41;11.70;;;6.73;;
55069;SDS011;40967;52.070;8.596;2023-02-24T17:49:07;10.95;;;6.60;;
55069;SDS011;40967;52.070;8.596;2023-02-24T17:51:32;10.80;;;6.40;;
55069;SDS011;40967;52.070;8.596;2023-02-24T17:53:58;8.10;;;4.85;;
55069;SDS011;40967;52.070;8.596;2023-02-24T17:56:23;8.27;;;4.53;;
55069;SDS011;40967;52.070;8.596;2023-02-24T17:58:48;14.57;;;7.73;;
55069;SDS011;40967;52.070;8.596;2023-02-24T18:01:14;19.90;;;12.47;;
55069;SDS011;40967;52.070;8.596;2023-02-24T18:03:39;14.60;;;8.13;;